createdAt,value
2022-08-14T00:02:01.453Z,27.30
2022-08-14T00:04:34.148Z,28.70
2022-08-14T00:07:08.409Z,25.30
2022-08-14T00:09:55.276Z,32.20
2022-08-14T00:12:48.280Z,29.90
2022-08-14T00:15:16.130Z,38.60
2022-08-14T00:17:47.287Z,32.10
2022-08-14T00:20:23.932Z,37.70
2022-08-14T00:23:08.400Z,31.30
2022-08-14T00:25:43.491Z,43.20
2022-08-14T00:28:32.469Z,29.80
2022-08-14T00:31:03.129Z,30.80
2022-08-14T00:33:52.247Z,32.60
2022-08-14T00:36:48.005Z,26.90
2022-08-14T00:39:14.289Z,27.00
2022-08-14T00:41:42.553Z,37.40
2022-08-14T00:44:11.101Z,29.10
2022-08-14T00:46:39.274Z,33.10
2022-08-14T00:49:08.133Z,27.20
2022-08-14T00:51:41.094Z,26.70
2022-08-14T00:54:20.907Z,33.30
2022-08-14T00:56:55.459Z,30.00
2022-08-14T00:59:25.094Z,27.40
2022-08-14T01:01:55.156Z,28.00
2022-08-14T01:04:38.258Z,28.80
2022-08-14T01:07:21.029Z,22.80
2022-08-14T01:09:51.850Z,21.50
2022-08-14T01:12:26.415Z,19.80
2022-08-14T01:14:58.289Z,22.60
2022-08-14T01:17:49.610Z,27.00
2022-08-14T01:20:39.666Z,44.70
2022-08-14T01:23:16.689Z,36.20
2022-08-14T01:25:51.503Z,41.50
2022-08-14T01:28:46.441Z,50.50
2022-08-14T01:31:12.177Z,38.40
2022-08-14T01:34:00.469Z,48.60
2022-08-14T01:36:36.599Z,43.30
2022-08-14T01:39:09.540Z,49.80
2022-08-14T01:41:41.381Z,50.10
2022-08-14T01:44:33.417Z,47.00
2022-08-14T01:47:06.007Z,54.60
2022-08-14T01:49:35.652Z,51.10
2022-08-14T01:52:09.024Z,48.60
2022-08-14T01:54:42.912Z,52.30
2022-08-14T01:57:11.500Z,46.40
2022-08-14T01:59:44.021Z,56.90
2022-08-14T02:02:19.098Z,59.20
2022-08-14T02:04:55.535Z,54.90
2022-08-14T02:07:44.864Z,58.50
2022-08-14T02:10:15.884Z,58.70
2022-08-14T02:12:54.048Z,60.10
2022-08-14T02:15:25.720Z,58.90
2022-08-14T02:17:54.239Z,63.70
2022-08-14T02:20:23.591Z,68.00
2022-08-14T02:22:54.783Z,60.20
2022-08-14T02:25:25.018Z,59.40
2022-08-14T02:28:24.233Z,52.50
2022-08-14T02:30:47.117Z,58.90
2022-08-14T02:33:15.155Z,52.80
2022-08-14T02:35:46.709Z,56.20
2022-08-14T02:38:29.912Z,63.10
2022-08-14T02:41:08.934Z,64.80
2022-08-14T02:43:46.222Z,61.50
2022-08-14T02:46:20.500Z,66.70
2022-08-14T02:49:03.283Z,62.40
2022-08-14T02:51:34.897Z,61.20
2022-08-14T02:54:07.370Z,62.20
2022-08-14T02:57:16.417Z,65.60
2022-08-14T02:59:28.947Z,59.70
2022-08-14T03:02:03.597Z,58.80
2022-08-14T03:04:32.954Z,57.30
2022-08-14T03:07:06.677Z,65.80
2022-08-14T03:09:42.358Z,59.70
2022-08-14T03:12:32.220Z,58.10
2022-08-14T03:15:03.632Z,59.90
2022-08-14T03:17:41.084Z,55.80
2022-08-14T03:20:22.340Z,57.20
2022-08-14T03:22:51.457Z,58.20
2022-08-14T03:25:21.760Z,56.90
2022-08-14T03:27:58.497Z,60.20
2022-08-14T03:30:39.738Z,58.50
2022-08-14T03:33:11.454Z,59.70
2022-08-14T03:36:00.357Z,61.90
2022-08-14T03:39:11.618Z,65.00
2022-08-14T03:41:20.433Z,63.70
2022-08-14T03:43:57.893Z,66.00
2022-08-14T03:46:52.663Z,68.70
2022-08-14T03:49:24.217Z,64.40
2022-08-14T03:51:57.469Z,65.80
2022-08-14T03:54:26.503Z,66.70
2022-08-14T03:56:54.872Z,70.00
2022-08-14T03:59:24.444Z,67.10
2022-08-14T04:02:01.273Z,67.50
2022-08-14T04:04:30.522Z,66.90
2022-08-14T04:06:59.972Z,68.70
2022-08-14T04:09:28.247Z,65.50
2022-08-14T04:11:58.277Z,74.20
2022-08-14T04:14:29.144Z,79.20
2022-08-14T04:16:57.564Z,75.90
2022-08-14T04:19:28.201Z,76.50
2022-08-14T04:22:04.544Z,78.20
2022-08-14T04:24:37.767Z,78.70
2022-08-14T04:27:09.760Z,79.30
2022-08-14T04:29:42.444Z,81.50
2022-08-14T04:33:00.207Z,81.10
2022-08-14T04:35:00.754Z,81.70
2022-08-14T04:37:46.694Z,79.80
2022-08-14T04:40:40.778Z,79.70
2022-08-14T04:43:38.808Z,74.70
2022-08-14T04:46:54.795Z,72.60
2022-08-14T04:49:00.153Z,73.60
2022-08-14T04:51:30.073Z,65.90
2022-08-14T04:54:05.709Z,67.20
2022-08-14T04:56:34.788Z,66.80
2022-08-14T04:59:09.892Z,63.10
2022-08-14T05:01:47.656Z,63.80
2022-08-14T05:04:19.863Z,61.60
2022-08-14T05:06:49.858Z,64.20
2022-08-14T05:09:22.853Z,64.90
2022-08-14T05:11:51.612Z,63.30
2022-08-14T05:14:45.268Z,59.70
2022-08-14T05:17:12.367Z,59.10
2022-08-14T05:19:44.298Z,60.40
2022-08-14T05:22:29.057Z,58.50
2022-08-14T05:24:57.332Z,64.90
2022-08-14T05:27:26.256Z,55.40
2022-08-14T05:29:59.237Z,60.50
2022-08-14T05:32:28.679Z,59.40
2022-08-14T05:34:59.099Z,55.80
2022-08-14T05:37:29.615Z,50.10
2022-08-14T05:40:00.476Z,48.90
2022-08-14T05:42:34.011Z,50.70
2022-08-14T05:45:03.966Z,51.00
2022-08-14T05:47:39.652Z,49.00
2022-08-14T05:50:19.281Z,50.30
2022-08-14T05:52:50.847Z,48.90
2022-08-14T05:55:22.107Z,42.30
2022-08-14T05:57:53.503Z,39.10
2022-08-14T06:00:24.693Z,41.70
2022-08-14T06:03:00.168Z,41.30
2022-08-14T06:05:29.655Z,38.20
2022-08-14T06:07:58.488Z,31.70
2022-08-14T06:10:28.012Z,28.70
2022-08-14T06:13:06.196Z,29.80
2022-08-14T06:15:34.328Z,26.20
2022-08-14T06:18:06.883Z,24.80
2022-08-14T06:20:35.426Z,25.30
2022-08-14T06:23:03.807Z,27.00
2022-08-14T06:25:32.511Z,25.30
2022-08-14T06:28:03.927Z,16.60
2022-08-14T06:30:46.185Z,15.00
2022-08-14T06:33:18.693Z,12.90
2022-08-14T06:35:47.824Z,17.60
2022-08-14T06:38:17.871Z,14.20
2022-08-14T06:40:46.619Z,15.00
2022-08-14T06:43:15.729Z,15.70
2022-08-14T06:45:50.272Z,16.60
2022-08-14T06:48:25.757Z,15.90
2022-08-14T06:50:55.596Z,13.70
2022-08-14T06:53:27.997Z,12.00
2022-08-14T06:56:02.193Z,7.40
2022-08-14T06:58:32.057Z,7.70
2022-08-14T07:01:25.030Z,11.90
2022-08-14T07:04:23.046Z,7.50
2022-08-14T07:06:55.776Z,9.10
2022-08-14T07:09:28.423Z,8.60
2022-08-14T07:12:34.991Z,10.30
2022-08-14T07:15:01.736Z,6.90
2022-08-14T07:17:32.189Z,1.30
2022-08-14T07:20:07.611Z,1.00
2022-08-14T07:22:56.397Z,1.00
2022-08-14T07:25:32.392Z,1.00
2022-08-14T07:28:01.956Z,1.00
2022-08-14T07:30:34.454Z,1.00
2022-08-14T07:33:03.712Z,1.00
2022-08-14T07:35:43.002Z,1.00
2022-08-14T07:38:23.918Z,1.00
2022-08-14T07:40:53.267Z,1.00
2022-08-14T07:43:23.081Z,1.00
2022-08-14T07:45:53.935Z,1.00
2022-08-14T07:48:25.066Z,1.00
2022-08-14T07:51:03.056Z,1.00
2022-08-14T07:53:36.657Z,1.00
2022-08-14T07:56:43.756Z,1.00
2022-08-14T07:58:58.898Z,1.00
2022-08-14T08:01:30.405Z,1.00
2022-08-14T08:04:00.349Z,1.00
2022-08-14T08:06:30.921Z,1.00
2022-08-14T08:09:03.225Z,1.00
2022-08-14T08:11:37.339Z,1.00
2022-08-14T08:14:10.766Z,1.00
2022-08-14T08:16:47.272Z,1.00
2022-08-14T08:19:18.850Z,1.00
2022-08-14T08:21:48.395Z,1.00
2022-08-14T08:24:19.767Z,1.00
2022-08-14T08:26:49.444Z,1.00
2022-08-14T08:29:25.058Z,1.00
2022-08-14T08:32:01.787Z,1.00
2022-08-14T08:34:45.291Z,1.00
2022-08-14T08:37:16.279Z,1.00
2022-08-14T08:40:02.679Z,1.00
2022-08-14T08:42:38.837Z,1.00
2022-08-14T08:45:12.044Z,1.00
2022-08-14T08:47:41.552Z,1.00
2022-08-14T08:50:23.051Z,1.00
2022-08-14T08:53:02.397Z,1.00
2022-08-14T08:55:34.180Z,1.00
2022-08-14T08:58:05.576Z,1.00
2022-08-14T09:00:49.006Z,1.00
2022-08-14T09:03:20.489Z,1.00
2022-08-14T09:05:54.386Z,1.00
2022-08-14T09:08:31.626Z,1.00
2022-08-14T09:11:19.347Z,1.00
2022-08-14T09:13:51.509Z,1.00
2022-08-14T09:16:23.698Z,1.00
2022-08-14T09:18:53.991Z,1.00
2022-08-14T09:21:31.097Z,1.00
2022-08-14T09:24:28.834Z,1.00
2022-08-14T09:26:50.176Z,1.00
2022-08-14T09:29:23.430Z,1.00
2022-08-14T09:31:57.364Z,1.00
2022-08-14T09:34:58.172Z,1.00
2022-08-14T09:37:38.443Z,1.00
2022-08-14T09:40:21.306Z,1.00
2022-08-14T09:43:01.504Z,1.00
2022-08-14T09:45:39.730Z,1.00
2022-08-14T09:48:16.551Z,1.00
2022-08-14T09:50:49.239Z,1.00
2022-08-14T09:54:18.292Z,1.00
2022-08-14T09:56:30.865Z,1.00
2022-08-14T09:59:01.233Z,1.00
2022-08-14T10:01:40.365Z,1.00
2022-08-14T10:04:34.355Z,1.00
2022-08-14T10:07:06.200Z,1.00
2022-08-14T10:09:59.455Z,1.00
2022-08-14T10:12:44.693Z,1.00
2022-08-14T10:15:20.879Z,1.00
2022-08-14T10:17:50.093Z,1.00
2022-08-14T10:20:39.410Z,1.00
2022-08-14T10:23:18.034Z,1.00
2022-08-14T10:25:53.424Z,1.00
2022-08-14T10:28:39.016Z,1.00
2022-08-14T10:31:25.685Z,1.00
2022-08-14T10:34:04.060Z,1.00
2022-08-14T10:36:44.927Z,1.00
2022-08-14T10:39:19.548Z,1.00
2022-08-14T10:41:53.990Z,1.00
2022-08-14T10:44:32.993Z,1.00
2022-08-14T10:47:41.004Z,1.00
2022-08-14T10:50:01.304Z,1.00
2022-08-14T10:52:33.928Z,1.00
2022-08-14T10:55:14.005Z,1.00
2022-08-14T10:57:51.207Z,1.00
2022-08-14T11:00:29.797Z,1.00
2022-08-14T11:03:09.747Z,1.00
2022-08-14T11:05:44.692Z,1.00
2022-08-14T11:08:15.417Z,1.00
2022-08-14T11:10:47.439Z,1.00
2022-08-14T11:13:21.224Z,1.00
2022-08-14T11:15:56.150Z,1.00
2022-08-14T11:18:32.084Z,1.00
2022-08-14T11:21:06.902Z,1.00
2022-08-14T11:23:39.918Z,1.00
2022-08-14T11:26:10.679Z,1.00
2022-08-14T11:28:47.333Z,1.00
2022-08-14T11:31:20.760Z,1.00
2022-08-14T11:33:58.154Z,1.00
2022-08-14T11:36:35.119Z,1.00
2022-08-14T11:39:33.838Z,1.00
2022-08-14T11:42:07.740Z,1.00
2022-08-14T11:44:56.637Z,1.00
2022-08-14T11:47:35.585Z,1.00
2022-08-14T11:50:34.056Z,1.00
2022-08-14T11:53:07.136Z,1.00
2022-08-14T11:55:37.995Z,1.00
2022-08-14T11:58:10.373Z,1.00
2022-08-14T12:00:48.627Z,1.00
2022-08-14T12:03:27.286Z,1.00
2022-08-14T12:06:27.994Z,1.00
2022-08-14T12:08:59.833Z,1.00
2022-08-14T12:11:41.308Z,1.00
2022-08-14T12:14:29.785Z,1.00
2022-08-14T12:17:03.363Z,1.00
2022-08-14T12:19:45.485Z,1.00
2022-08-14T12:22:29.406Z,1.00
2022-08-14T12:24:58.438Z,1.00
2022-08-14T12:27:37.874Z,1.00
2022-08-14T12:30:13.583Z,1.00
2022-08-14T12:32:48.996Z,1.00
2022-08-14T12:35:20.372Z,1.00
2022-08-14T12:37:49.796Z,1.00
2022-08-14T12:40:22.909Z,1.00
2022-08-14T12:42:56.624Z,1.00
2022-08-14T12:48:21.202Z,1.00
2022-08-14T12:50:52.383Z,1.00
2022-08-14T12:53:22.083Z,1.00
2022-08-14T12:56:21.490Z,1.00
2022-08-14T12:58:51.892Z,1.00
2022-08-14T13:01:22.344Z,1.00
2022-08-14T13:03:51.751Z,1.00
2022-08-14T13:06:24.436Z,1.00
2022-08-14T13:08:53.618Z,1.00
2022-08-14T13:11:34.467Z,1.00
2022-08-14T13:14:05.058Z,1.00
2022-08-14T13:16:38.701Z,1.00
2022-08-14T13:19:11.090Z,1.00
2022-08-14T13:21:59.090Z,1.00
2022-08-14T13:24:29.994Z,1.00
2022-08-14T13:27:04.696Z,1.00
2022-08-14T13:29:39.636Z,1.00
2022-08-14T13:32:10.023Z,1.00
2022-08-14T13:34:41.067Z,1.00
2022-08-14T13:37:11.368Z,1.00
2022-08-14T13:39:56.366Z,1.00
2022-08-14T13:42:27.697Z,1.00
2022-08-14T13:45:01.032Z,1.00
2022-08-14T13:47:30.835Z,1.00
2022-08-14T13:50:02.910Z,1.00
2022-08-14T13:52:52.517Z,1.00
2022-08-14T13:55:22.835Z,1.00
2022-08-14T13:58:03.761Z,1.00
2022-08-14T14:00:35.646Z,1.00
2022-08-14T14:03:07.372Z,1.00
2022-08-14T14:05:53.190Z,1.00
2022-08-14T14:08:43.590Z,1.00
2022-08-14T14:11:16.026Z,1.00
2022-08-14T14:13:45.232Z,1.00
2022-08-14T14:16:15.376Z,1.00
2022-08-14T14:18:56.221Z,1.00
2022-08-14T14:21:26.527Z,1.00
2022-08-14T14:23:58.980Z,1.00
2022-08-14T14:26:28.645Z,1.00
2022-08-14T14:28:58.275Z,1.00
2022-08-14T14:31:31.223Z,1.00
2022-08-14T14:34:12.634Z,1.00
2022-08-14T14:36:52.769Z,1.00
2022-08-14T14:39:27.489Z,1.00
2022-08-14T14:42:06.255Z,1.00
2022-08-14T14:44:40.209Z,1.00
2022-08-14T14:47:12.410Z,1.00
2022-08-14T14:49:55.006Z,1.00
2022-08-14T14:52:27.840Z,1.00
2022-08-14T14:54:58.978Z,1.00
2022-08-14T14:57:34.883Z,1.00
2022-08-14T15:00:05.240Z,1.00
2022-08-14T15:02:36.667Z,1.00
2022-08-14T15:05:08.138Z,1.00
2022-08-14T15:07:36.473Z,1.00
2022-08-14T15:10:27.310Z,1.00
2022-08-14T15:12:57.777Z,1.00
2022-08-14T15:15:28.569Z,1.00
2022-08-14T15:18:01.265Z,1.00
2022-08-14T15:20:30.982Z,1.00
2022-08-14T15:23:12.106Z,1.00
2022-08-14T15:25:43.704Z,1.00
2022-08-14T15:28:21.864Z,1.00
2022-08-14T15:30:58.913Z,1.00
2022-08-14T15:34:01.036Z,1.00
2022-08-14T15:36:35.172Z,1.00
2022-08-14T15:39:03.772Z,1.00
2022-08-14T15:41:41.667Z,1.00
2022-08-14T15:44:24.626Z,1.00
2022-08-14T15:46:55.091Z,1.00
2022-08-14T15:49:24.269Z,1.00
2022-08-14T15:51:52.650Z,1.00
2022-08-14T15:54:22.057Z,1.00
2022-08-14T15:56:59.434Z,1.00
2022-08-14T15:59:48.507Z,1.00
2022-08-14T16:02:16.859Z,1.00
2022-08-14T16:04:50.804Z,1.00
2022-08-14T16:07:21.987Z,1.00
2022-08-14T16:10:11.917Z,1.00
2022-08-14T16:12:42.318Z,1.00
2022-08-14T16:15:22.628Z,1.00
2022-08-14T16:17:53.444Z,1.00
2022-08-14T16:20:42.201Z,1.00
2022-08-14T16:23:12.347Z,1.00
2022-08-14T16:25:44.777Z,1.00
2022-08-14T16:28:27.791Z,1.00
2022-08-14T16:30:57.104Z,1.00
2022-08-14T16:33:56.893Z,1.00
2022-08-14T16:36:30.088Z,1.00
2022-08-14T16:39:00.615Z,1.00
2022-08-14T16:41:29.643Z,1.00
2022-08-14T16:44:02.435Z,1.00
2022-08-14T16:46:34.914Z,1.00
2022-08-14T16:49:05.567Z,1.00
2022-08-14T16:51:38.537Z,1.00
2022-08-14T16:54:21.050Z,1.00
2022-08-14T16:57:13.143Z,1.00
2022-08-14T16:59:55.783Z,1.00
2022-08-14T17:02:36.057Z,1.00
2022-08-14T17:05:17.894Z,1.00
2022-08-14T17:08:32.255Z,1.00
2022-08-14T17:11:04.906Z,1.00
2022-08-14T17:13:58.041Z,1.00
2022-08-14T17:16:35.914Z,1.00
2022-08-14T17:19:14.448Z,1.00
2022-08-14T17:21:46.862Z,1.00
2022-08-14T17:24:55.948Z,1.00
2022-08-14T17:27:07.350Z,1.00
2022-08-14T17:29:54.253Z,1.00
2022-08-14T17:32:44.607Z,1.00
2022-08-14T17:35:26.805Z,1.00
2022-08-14T17:38:39.478Z,1.00
2022-08-14T17:41:23.129Z,1.00
2022-08-14T17:43:54.916Z,1.00
2022-08-14T17:46:37.556Z,1.00
2022-08-14T17:49:18.112Z,1.00
2022-08-14T17:52:07.577Z,1.00
2022-08-14T17:54:52.607Z,1.00
2022-08-14T17:57:23.356Z,1.00
2022-08-14T17:59:54.152Z,1.00
2022-08-14T18:02:31.075Z,1.00
2022-08-14T18:05:03.039Z,1.00
2022-08-14T18:07:59.671Z,1.00
2022-08-14T18:10:55.151Z,1.00
2022-08-14T18:13:10.812Z,1.00
2022-08-14T18:15:41.170Z,1.00
2022-08-14T18:18:11.335Z,1.00
2022-08-14T18:21:39.753Z,1.00
2022-08-14T18:23:31.634Z,1.00
2022-08-14T18:26:00.687Z,1.00
2022-08-14T18:28:48.226Z,1.00
2022-08-14T18:31:43.904Z,1.00
2022-08-14T18:34:32.260Z,1.00
2022-08-14T18:37:17.236Z,1.00
2022-08-14T18:40:03.026Z,1.00
2022-08-14T18:42:45.775Z,1.00
2022-08-14T18:45:18.563Z,1.00
2022-08-14T18:48:14.638Z,1.00
2022-08-14T18:50:52.314Z,1.00
2022-08-14T18:53:24.856Z,1.00
2022-08-14T18:56:02.110Z,1.00
2022-08-14T18:58:48.775Z,1.00
2022-08-14T19:01:29.495Z,1.00
2022-08-14T19:03:59.673Z,1.00
2022-08-14T19:06:40.372Z,1.00
2022-08-14T19:09:34.659Z,1.00
2022-08-14T19:12:04.903Z,1.00
2022-08-14T19:14:48.260Z,1.00
2022-08-14T19:17:43.078Z,1.00
2022-08-14T19:20:52.899Z,1.00
2022-08-14T19:23:42.655Z,1.00
2022-08-14T19:26:35.608Z,1.00
2022-08-14T19:29:36.146Z,1.00
2022-08-14T19:32:22.499Z,1.00
2022-08-14T19:34:52.771Z,1.00
2022-08-14T19:37:45.925Z,1.00
2022-08-14T19:40:19.425Z,1.00
2022-08-14T19:42:49.798Z,1.00
2022-08-14T19:45:19.240Z,1.00
2022-08-14T19:47:50.025Z,1.00
2022-08-14T19:50:38.333Z,1.00
2022-08-14T19:53:12.023Z,1.00
2022-08-14T19:55:49.244Z,1.00
2022-08-14T19:58:17.380Z,1.00
2022-08-14T20:00:59.092Z,1.00
2022-08-14T20:03:59.314Z,1.00
2022-08-14T20:06:18.219Z,1.00
2022-08-14T20:10:58.269Z,1.00
2022-08-14T20:12:00.858Z,1.00
2022-08-14T20:14:29.409Z,1.00
2022-08-14T20:17:05.637Z,1.00
2022-08-14T20:19:37.848Z,1.00
2022-08-14T20:22:36.181Z,1.00
2022-08-14T20:25:11.315Z,1.00
2022-08-14T20:27:44.038Z,1.00
2022-08-14T20:30:33.463Z,1.00
2022-08-14T20:33:10.863Z,1.00
2022-08-14T20:35:43.624Z,1.00
2022-08-14T20:38:30.474Z,1.00
2022-08-14T20:41:05.574Z,1.00
2022-08-14T20:43:54.741Z,1.00
2022-08-14T20:46:29.590Z,1.00
2022-08-14T20:49:01.205Z,1.00
2022-08-14T20:51:36.675Z,1.00
2022-08-14T20:54:08.012Z,1.00
2022-08-14T20:56:40.471Z,1.00
2022-08-14T20:59:17.805Z,1.00
2022-08-14T21:01:51.545Z,1.00
2022-08-14T21:04:26.652Z,1.00
2022-08-14T21:07:25.045Z,2.70
2022-08-14T21:10:05.500Z,1.00
2022-08-14T21:12:36.485Z,5.70
2022-08-14T21:15:11.207Z,8.20
2022-08-14T21:17:43.147Z,1.00
2022-08-14T21:20:25.499Z,1.00
2022-08-14T21:23:00.675Z,2.00
2022-08-14T21:25:31.791Z,6.20
2022-08-14T21:28:03.249Z,5.90
2022-08-14T21:30:51.648Z,4.00
2022-08-14T21:33:22.680Z,5.60
2022-08-14T21:35:55.475Z,5.40
2022-08-14T21:38:33.749Z,5.80
2022-08-14T21:41:41.625Z,5.40
2022-08-14T21:44:17.507Z,5.00
2022-08-14T21:46:51.149Z,9.70
2022-08-14T21:49:25.625Z,11.30
2022-08-14T21:52:50.560Z,14.00
2022-08-14T21:55:00.631Z,10.80
2022-08-14T21:58:45.922Z,11.60
2022-08-14T22:00:34.630Z,15.00
2022-08-14T22:03:06.587Z,17.30
2022-08-14T22:05:40.415Z,15.40
2022-08-14T22:08:12.290Z,17.60
2022-08-14T22:10:46.374Z,16.20
2022-08-14T22:13:16.829Z,18.30
2022-08-14T22:15:50.073Z,24.80
2022-08-14T22:18:21.410Z,28.00
2022-08-14T22:20:53.463Z,31.60
2022-08-14T22:23:23.111Z,35.00
2022-08-14T22:25:52.687Z,29.70
2022-08-14T22:28:21.664Z,27.20
2022-08-14T22:30:54.774Z,32.90
2022-08-14T22:33:26.553Z,26.00
2022-08-14T22:36:01.655Z,30.30
2022-08-14T22:38:37.053Z,36.30
2022-08-14T22:41:25.621Z,34.50
2022-08-14T22:43:59.109Z,33.60
2022-08-14T22:46:27.762Z,30.60
2022-08-14T22:48:57.531Z,29.20
2022-08-14T22:51:28.119Z,30.00
2022-08-14T22:53:58.927Z,44.50
2022-08-14T22:56:30.445Z,45.60
2022-08-14T22:59:01.185Z,48.70
2022-08-14T23:01:56.468Z,43.30
2022-08-14T23:04:35.587Z,42.60
2022-08-14T23:07:21.744Z,35.50
2022-08-14T23:09:56.953Z,38.20
2022-08-14T23:12:31.487Z,38.80
2022-08-14T23:15:00.957Z,41.10
2022-08-14T23:17:39.625Z,44.80
2022-08-14T23:20:19.185Z,49.30
2022-08-14T23:22:52.353Z,44.20
2022-08-14T23:25:57.312Z,43.20
2022-08-14T23:28:34.473Z,39.70
2022-08-14T23:31:02.213Z,41.90
2022-08-14T23:33:34.914Z,37.90
2022-08-14T23:36:28.308Z,40.90
2022-08-14T23:38:55.239Z,61.20
2022-08-14T23:41:24.522Z,51.50
2022-08-14T23:43:55.133Z,51.60
2022-08-14T23:46:34.848Z,42.80
2022-08-14T23:49:04.854Z,46.70
2022-08-14T23:51:36.628Z,48.80
2022-08-14T23:54:49.167Z,50.20
2022-08-14T23:57:00.193Z,57.20
2022-08-14T23:59:32.053Z,62.10
